Time;durP1;ratioP1;P1;durP2;ratioP2;P2;SDS_P1;SDS_P2;PMS_P1;PMS_P2;Temp;Humidity;BMP_temperature;BMP_pressure;BME280_temperature;BME280_humidity;BME280_pressure;Samples;Min_cycle;Max_cycle;Signal;HPM_P1;HPM_P2
2021/04/29 00:00:08;;;;;;;6.40;5.80;;;14.20;82.90;;;;;;4973943;28;20204;-86
2021/04/29 00:02:34;;;;;;;6.27;5.77;;;14.10;83.20;;;;;;4974364;28;20222;-87
2021/04/29 00:05:00;;;;;;;6.67;6.07;;;14.10;84.10;;;;;;4971891;28;20217;-86
2021/04/29 00:07:26;;;;;;;5.70;5.20;;;14.10;84.00;;;;;;4972324;28;20682;-87
2021/04/29 00:09:51;;;;;;;6.50;5.90;;;14.20;84.80;;;;;;4967987;28;20203;-87
2021/04/29 00:12:17;;;;;;;6.67;5.97;;;14.20;85.70;;;;;;4966793;28;20191;-87
2021/04/29 00:14:42;;;;;;;6.37;5.87;;;14.20;85.00;;;;;;4972445;28;20210;-86
2021/04/29 00:17:08;;;;;;;6.30;5.70;;;14.10;83.30;;;;;;4972938;28;20195;-86
2021/04/29 00:19:34;;;;;;;6.07;5.47;;;14.20;83.70;;;;;;4972865;28;20179;-86
2021/04/29 00:21:59;;;;;;;5.87;5.37;;;14.10;84.20;;;;;;4972486;28;20182;-86
2021/04/29 00:24:25;;;;;;;5.77;5.37;;;14.20;83.50;;;;;;4973424;28;20196;-86
2021/04/29 00:26:51;;;;;;;6.57;6.07;;;14.30;83.60;;;;;;4972477;28;20207;-86
2021/04/29 00:29:17;;;;;;;6.10;5.60;;;14.30;83.80;;;;;;4972824;28;20262;-86
2021/04/29 00:31:42;;;;;;;6.70;6.10;;;14.30;83.60;;;;;;4972212;28;20208;-86
2021/04/29 00:34:08;;;;;;;6.37;5.70;;;14.30;83.10;;;;;;4972848;28;20224;-86
2021/04/29 00:36:33;;;;;;;5.83;5.33;;;14.20;83.30;;;;;;4971240;28;20289;-86
2021/04/29 00:38:59;;;;;;;5.97;5.53;;;14.20;83.50;;;;;;4973077;28;20209;-86
2021/04/29 00:41:24;;;;;;;6.13;5.63;;;14.20;84.70;;;;;;4971229;28;20219;-86
2021/04/29 00:43:51;;;;;;;6.37;5.77;;;14.10;84.90;;;;;;4972874;28;20208;-86
2021/04/29 00:46:17;;;;;;;6.40;5.90;;;14.00;86.70;;;;;;4972491;28;20180;-86
2021/04/29 00:48:44;;;;;;;6.57;5.97;;;14.00;86.10;;;;;;4971479;28;20187;-86
2021/04/29 00:51:10;;;;;;;6.90;6.30;;;14.00;86.90;;;;;;4970442;28;20226;-86
2021/04/29 00:53:41;;;;;;;6.80;6.10;;;14.10;85.90;;;;;;4972293;28;20188;-86
2021/04/29 00:56:07;;;;;;;6.10;5.57;;;14.10;86.90;;;;;;4971818;28;20696;-85
2021/04/29 00:58:33;;;;;;;7.37;6.63;;;14.10;87.30;;;;;;4971897;28;20187;-86
2021/04/29 01:00:59;;;;;;;7.90;6.70;;;14.10;86.80;;;;;;4971732;28;20260;-86
2021/04/29 01:03:51;;;;;;;7.40;6.80;;;14.10;86.20;;;;;;4973961;28;20181;-87
2021/04/29 01:06:54;;;;;;;8.77;7.77;;;14.10;85.80;;;;;;4977239;28;20683;-86
2021/04/29 01:09:33;;;;;;;8.03;7.23;;;14.10;87.10;;;;;;4974088;28;20204;-86
2021/04/29 01:12:21;;;;;;;8.73;8.03;;;14.00;87.70;;;;;;4975349;28;20194;-86
2021/04/29 01:14:50;;;;;;;9.00;8.20;;;13.90;88.80;;;;;;4975939;28;20201;-86
2021/04/29 01:17:17;;;;;;;8.47;7.77;;;13.80;89.00;;;;;;4976500;28;20181;-86
2021/04/29 01:19:52;;;;;;;8.40;7.57;;;13.70;88.20;;;;;;4976538;28;20207;-86
2021/04/29 01:22:18;;;;;;;9.57;8.77;;;13.60;88.70;;;;;;4977455;28;20829;-86
2021/04/29 01:24:59;;;;;;;10.00;9.20;;;13.50;89.30;;;;;;4975470;28;20179;-86
2021/04/29 01:27:27;;;;;;;10.40;9.40;;;13.20;90.90;;;;;;4975397;28;20186;-87
2021/04/29 01:29:53;;;;;;;10.93;9.93;;;12.90;92.20;;;;;;4975656;28;20201;-86
2021/04/29 01:32:19;;;;;;;11.77;10.60;;;12.70;94.70;;;;;;4975580;28;20176;-87
2021/04/29 01:34:45;;;;;;;11.80;10.70;;;12.70;94.40;;;;;;4976220;28;20206;-86
2021/04/29 01:37:12;;;;;;;9.63;8.83;;;12.70;95.70;;;;;;4975727;28;20185;-86
2021/04/29 01:39:39;;;;;;;7.97;7.27;;;12.80;94.10;;;;;;4976170;28;20305;-86
2021/04/29 01:42:06;;;;;;;7.73;6.93;;;12.80;92.50;;;;;;4975979;28;20271;-86
2021/04/29 01:44:32;;;;;;;6.67;6.07;;;12.80;91.40;;;;;;4974546;28;20192;-86
2021/04/29 01:47:00;;;;;;;6.70;6.10;;;12.80;90.90;;;;;;4975322;28;20188;-86
2021/04/29 01:49:27;;;;;;;6.97;6.37;;;12.80;91.40;;;;;;4975385;28;20201;-86
2021/04/29 01:51:53;;;;;;;7.33;6.73;;;12.80;91.00;;;;;;4975623;28;20185;-86
2021/04/29 01:54:21;;;;;;;7.13;6.47;;;12.80;90.80;;;;;;4975383;28;20227;-87
2021/04/29 01:56:48;;;;;;;7.47;6.67;;;12.70;90.60;;;;;;4975303;28;20244;-86
2021/04/29 01:59:14;;;;;;;7.23;6.53;;;12.70;91.20;;;;;;4974903;28;20405;-86
2021/04/29 02:01:42;;;;;;;7.57;6.10;;;12.60;91.50;;;;;;4975105;28;20200;-86
2021/04/29 02:04:09;;;;;;;7.47;6.80;;;12.50;92.60;;;;;;4975324;28;20218;-87
2021/04/29 02:06:43;;;;;;;7.47;6.87;;;12.60;92.70;;;;;;4975367;28;20267;-86
2021/04/29 02:09:10;;;;;;;7.97;7.37;;;12.50;93.20;;;;;;4975011;28;20178;-86
2021/04/29 02:11:39;;;;;;;6.70;6.13;;;12.60;92.40;;;;;;4975377;28;20214;-86
2021/04/29 02:14:08;;;;;;;8.13;7.20;;;12.60;93.20;;;;;;4973849;28;20193;-86
2021/04/29 02:16:39;;;;;;;7.60;6.90;;;12.60;92.80;;;;;;4974191;28;20273;-86
2021/04/29 02:19:07;;;;;;;8.33;7.57;;;12.60;92.30;;;;;;4978152;28;20177;-86
2021/04/29 02:21:34;;;;;;;9.33;8.50;;;12.50;93.70;;;;;;4975150;28;20220;-86
2021/04/29 02:24:00;;;;;;;8.70;7.90;;;12.40;94.40;;;;;;4975672;28;20274;-86
2021/04/29 02:26:26;;;;;;;8.83;8.03;;;12.40;93.90;;;;;;4975049;28;20195;-86
2021/04/29 02:28:54;;;;;;;9.53;8.83;;;12.40;95.20;;;;;;4974987;28;20211;-86
2021/04/29 02:31:23;;;;;;;10.67;9.67;;;12.30;95.30;;;;;;4974105;28;20571;-86
2021/04/29 02:33:51;;;;;;;11.27;10.27;;;12.20;96.80;;;;;;4973692;28;20252;-86
2021/04/29 02:36:17;;;;;;;10.23;9.13;;;11.90;97.80;;;;;;4973409;28;20670;-86
2021/04/29 02:38:44;;;;;;;10.93;9.93;;;11.90;98.90;;;;;;4974790;28;20182;-86
2021/04/29 02:41:10;;;;;;;9.97;9.07;;;11.90;98.60;;;;;;4976314;28;20211;-86
2021/04/29 02:43:36;;;;;;;9.13;8.10;;;11.80;97.80;;;;;;4977607;28;20323;-86
2021/04/29 02:46:02;;;;;;;9.60;8.63;;;11.80;98.40;;;;;;4977826;28;20211;-86
2021/04/29 02:48:28;;;;;;;8.20;7.60;;;11.70;99.00;;;;;;4977831;28;20202;-86
2021/04/29 02:50:54;;;;;;;9.00;8.20;;;11.80;99.60;;;;;;4973644;28;20211;-86
2021/04/29 02:53:21;;;;;;;10.60;8.00;;;11.90;98.60;;;;;;4973971;28;20212;-86
2021/04/29 02:55:48;;;;;;;9.07;8.27;;;11.80;98.20;;;;;;4974648;28;20207;-86
2021/04/29 02:58:16;;;;;;;8.50;7.70;;;11.70;98.90;;;;;;4974410;28;20186;-86
2021/04/29 03:00:43;;;;;;;8.63;7.83;;;11.70;99.70;;;;;;4973784;28;20305;-86
2021/04/29 03:03:09;;;;;;;9.43;8.50;;;11.70;99.40;;;;;;4974987;28;20241;-86
2021/04/29 03:05:36;;;;;;;8.63;7.70;;;11.60;99.90;;;;;;4974044;28;20194;-86
2021/04/29 03:08:03;;;;;;;9.73;8.83;;;11.70;99.50;;;;;;4975517;28;20728;-86
2021/04/29 03:10:29;;;;;;;9.83;8.93;;;11.60;99.90;;;;;;4993500;28;20206;-86
2021/04/29 03:12:54;;;;;;;9.63;8.73;;;11.50;99.90;;;;;;4993151;28;20186;-86
2021/04/29 03:15:21;;;;;;;10.90;9.80;;;11.50;99.90;;;;;;4993888;28;20237;-86
2021/04/29 03:17:47;;;;;;;9.57;8.67;;;11.40;99.90;;;;;;4974689;28;20241;-86
2021/04/29 03:20:13;;;;;;;10.70;9.60;;;11.50;99.90;;;;;;4974306;28;20742;-86
2021/04/29 03:22:39;;;;;;;9.93;9.03;;;11.50;99.90;;;;;;4973476;28;20187;-86
2021/04/29 03:25:05;;;;;;;10.00;9.00;;;11.60;99.90;;;;;;4971894;28;20192;-86
2021/04/29 03:27:31;;;;;;;9.50;8.57;;;11.60;99.90;;;;;;4973706;28;20186;-86
2021/04/29 03:29:57;;;;;;;10.37;9.40;;;11.60;99.90;;;;;;4990963;23;20189;-89
2021/04/29 03:32:24;;;;;;;10.63;9.60;;;11.50;99.90;;;;;;4991152;28;20198;-90
2021/04/29 03:34:50;;;;;;;9.93;8.97;;;11.50;99.90;;;;;;5003826;28;20229;-90
2021/04/29 03:37:16;;;;;;;10.83;9.83;;;11.50;99.90;;;;;;5004737;28;20178;-90
2021/04/29 03:39:42;;;;;;;10.03;9.00;;;11.50;99.90;;;;;;5004786;28;20206;-89
2021/04/29 03:42:08;;;;;;;10.53;9.57;;;11.60;99.90;;;;;;5003829;28;20250;-90
2021/04/29 03:44:34;;;;;;;10.00;9.03;;;11.50;99.90;;;;;;5005169;28;20637;-89
2021/04/29 03:47:00;;;;;;;9.77;8.87;;;11.50;99.90;;;;;;5004562;28;20277;-90
2021/04/29 03:49:26;;;;;;;9.40;8.57;;;11.50;99.90;;;;;;5004453;28;20200;-88
2021/04/29 03:51:52;;;;;;;11.93;9.50;;;11.60;99.90;;;;;;5004576;28;20675;-89
2021/04/29 03:54:18;;;;;;;8.80;8.00;;;11.50;99.90;;;;;;4986444;28;20214;-89
2021/04/29 03:56:44;;;;;;;8.93;8.13;;;11.40;99.90;;;;;;5004318;28;20178;-89
2021/04/29 03:59:09;;;;;;;9.90;8.90;;;11.50;99.90;;;;;;5004493;28;20182;-89
2021/04/29 04:01:35;;;;;;;9.03;8.23;;;11.50;99.80;;;;;;5003325;28;20201;-89
2021/04/29 04:04:01;;;;;;;9.37;8.47;;;11.50;99.90;;;;;;5006803;28;20175;-89
2021/04/29 04:06:26;;;;;;;10.70;9.70;;;11.50;99.90;;;;;;5004502;28;20586;-89
2021/04/29 04:08:53;;;;;;;9.70;8.80;;;11.40;99.90;;;;;;5000754;28;20190;-89
2021/04/29 04:11:19;;;;;;;10.43;9.43;;;11.50;99.90;;;;;;5004238;28;20209;-89
2021/04/29 04:13:44;;;;;;;11.10;10.10;;;11.50;99.90;;;;;;5002903;28;20182;-90
2021/04/29 04:16:12;;;;;;;10.37;9.47;;;11.60;99.90;;;;;;5003754;28;20270;-89
2021/04/29 04:18:38;;;;;;;10.53;9.67;;;11.70;99.50;;;;;;5005682;28;20618;-89
2021/04/29 04:21:05;;;;;;;9.20;8.37;;;11.60;99.80;;;;;;5003854;28;20198;-88
2021/04/29 04:23:31;;;;;;;10.33;9.43;;;11.60;99.70;;;;;;5004976;28;20256;-90
2021/04/29 04:25:56;;;;;;;11.10;10.10;;;11.70;99.50;;;;;;5002615;28;20745;-88
2021/04/29 04:28:22;;;;;;;11.83;10.73;;;11.70;99.90;;;;;;5003877;28;20197;-89
2021/04/29 04:30:48;;;;;;;11.67;10.60;;;11.80;98.60;;;;;;5019442;28;20218;-89
2021/04/29 04:33:13;;;;;;;11.13;9.73;;;11.90;98.80;;;;;;5002351;28;20237;-90
2021/04/29 04:35:39;;;;;;;11.47;10.37;;;11.90;99.50;;;;;;4985489;28;20229;-88
2021/04/29 04:38:05;;;;;;;10.93;9.93;;;11.90;99.20;;;;;;5002554;28;20201;-89
2021/04/29 04:40:31;;;;;;;12.10;11.00;;;11.90;98.50;;;;;;5005149;28;20202;-89
2021/04/29 04:42:57;;;;;;;11.10;10.20;;;11.90;98.70;;;;;;5006232;28;20190;-89
2021/04/29 04:45:23;;;;;;;11.23;10.20;;;12.00;98.50;;;;;;5007232;28;20201;-89
2021/04/29 04:47:49;;;;;;;11.50;10.40;;;12.00;98.80;;;;;;5005542;28;20284;-88
2021/04/29 04:50:14;;;;;;;11.50;10.40;;;12.10;98.10;;;;;;5006614;28;20211;-89
2021/04/29 04:52:40;;;;;;;11.77;10.57;;;12.10;97.50;;;;;;5004438;28;20250;-90
2021/04/29 04:55:07;;;;;;;12.57;11.47;;;12.00;98.50;;;;;;5005978;28;20236;-88
2021/04/29 04:57:32;;;;;;;11.53;10.43;;;12.10;98.20;;;;;;5005236;28;20183;-89
2021/04/29 04:59:58;;;;;;;12.40;11.30;;;12.10;98.10;;;;;;5004853;28;20214;-89
2021/04/29 05:02:24;;;;;;;11.60;10.50;;;12.10;98.10;;;;;;5004918;28;20275;-89
2021/04/29 05:04:49;;;;;;;11.57;10.60;;;12.20;97.60;;;;;;5006343;28;20190;-88
2021/04/29 05:07:15;;;;;;;11.67;10.67;;;12.30;97.20;;;;;;5005879;28;20780;-88
2021/04/29 05:09:43;;;;;;;11.70;10.50;;;12.30;97.30;;;;;;5005665;28;20182;-89
2021/04/29 05:12:10;;;;;;;11.70;10.50;;;12.20;97.60;;;;;;5005030;28;20498;-88
2021/04/29 05:14:36;;;;;;;10.87;9.87;;;12.30;97.00;;;;;;5001761;28;20621;-89
2021/04/29 05:17:03;;;;;;;11.33;10.17;;;12.30;97.20;;;;;;5005149;28;20193;-89
2021/04/29 05:19:28;;;;;;;12.27;11.10;;;12.30;96.50;;;;;;5004565;28;20548;-89
2021/04/29 05:21:54;;;;;;;12.30;11.00;;;12.30;97.00;;;;;;5005802;28;20210;-89
2021/04/29 05:24:20;;;;;;;10.60;9.70;;;12.20;97.30;;;;;;5005162;28;20209;-90
2021/04/29 05:26:46;;;;;;;18.07;13.50;;;12.20;97.70;;;;;;5005071;28;20252;-89
2021/04/29 05:29:12;;;;;;;26.57;18.00;;;12.30;97.30;;;;;;5004950;28;20181;-89
2021/04/29 05:31:38;;;;;;;11.17;10.07;;;12.40;96.70;;;;;;5004511;28;20236;-89
2021/04/29 05:34:04;;;;;;;10.30;9.30;;;12.50;96.20;;;;;;5005071;28;20188;-89
2021/04/29 05:36:30;;;;;;;27.87;25.17;;;12.60;94.80;;;;;;5004982;28;20264;-89
2021/04/29 05:38:56;;;;;;;10.73;9.73;;;12.60;93.20;;;;;;5019883;28;20185;-89
2021/04/29 05:41:21;;;;;;;71.77;64.50;;;12.60;94.20;;;;;;5005975;28;20321;-89
2021/04/29 05:43:47;;;;;;;9.30;8.40;;;12.60;94.10;;;;;;5004289;28;20189;-89
2021/04/29 05:46:14;;;;;;;8.40;7.67;;;12.70;93.40;;;;;;5004146;28;20553;-89
2021/04/29 05:48:39;;;;;;;11.97;10.80;;;12.60;92.70;;;;;;5005273;28;20194;-88
2021/04/29 05:51:05;;;;;;;9.43;8.63;;;12.50;94.50;;;;;;5005094;28;20220;-88
2021/04/29 05:53:31;;;;;;;8.57;7.80;;;12.50;94.60;;;;;;5004871;28;20182;-89
2021/04/29 05:55:57;;;;;;;8.93;8.20;;;12.50;94.40;;;;;;5003228;28;20272;-89
2021/04/29 05:58:22;;;;;;;8.23;7.53;;;12.50;93.40;;;;;;5004649;28;20166;-89
2021/04/29 06:00:48;;;;;;;8.40;7.50;;;12.50;93.00;;;;;;5005361;28;20210;-88
2021/04/29 06:03:14;;;;;;;9.07;8.27;;;12.60;93.90;;;;;;5004983;28;20183;-89
2021/04/29 06:05:40;;;;;;;8.73;7.97;;;12.60;94.60;;;;;;5004521;28;20182;-88
2021/04/29 06:08:06;;;;;;;8.70;8.00;;;12.70;94.70;;;;;;5003993;28;20191;-87
2021/04/29 06:10:33;;;;;;;7.50;6.90;;;12.90;94.00;;;;;;5003389;28;20213;-88
2021/04/29 06:12:59;;;;;;;7.40;6.80;;;13.00;92.60;;;;;;5003150;28;20192;-89
2021/04/29 06:15:25;;;;;;;7.20;6.43;;;13.00;93.60;;;;;;5005531;28;20215;-88
2021/04/29 06:17:51;;;;;;;6.00;5.50;;;12.80;91.10;;;;;;4998980;28;20623;-89
2021/04/29 06:20:17;;;;;;;8.67;7.23;;;12.80;91.50;;;;;;4985736;28;20258;-89
2021/04/29 06:22:43;;;;;;;6.40;5.80;;;12.70;91.30;;;;;;4995726;28;20191;-89
2021/04/29 06:25:09;;;;;;;6.33;5.73;;;12.80;91.40;;;;;;4993478;28;20199;-88
2021/04/29 06:27:36;;;;;;;6.73;6.13;;;12.70;90.60;;;;;;5004272;28;20194;-88
2021/04/29 06:30:04;;;;;;;7.10;6.40;;;12.60;90.80;;;;;;5003812;28;20231;-88
2021/04/29 06:32:30;;;;;;;6.63;6.03;;;12.50;91.20;;;;;;5004728;28;20205;-89
2021/04/29 06:34:55;;;;;;;7.10;6.47;;;12.50;93.60;;;;;;5004602;28;20218;-89
2021/04/29 06:37:21;;;;;;;6.10;5.60;;;12.40;93.20;;;;;;5004789;28;20189;-89
2021/04/29 06:39:47;;;;;;;8.90;5.90;;;12.30;94.10;;;;;;5011769;23;20635;-87
2021/04/29 06:42:14;;;;;;;6.33;5.53;;;12.30;92.70;;;;;;5001961;28;20224;-86
2021/04/29 06:44:41;;;;;;;6.63;5.43;;;12.20;93.80;;;;;;5001240;28;20197;-88
2021/04/29 06:47:07;;;;;;;6.00;5.40;;;12.30;91.60;;;;;;5000443;28;20220;-86
2021/04/29 06:49:33;;;;;;;6.07;5.47;;;12.10;92.50;;;;;;5007528;28;20177;-87
2021/04/29 06:51:59;;;;;;;6.83;6.07;;;12.10;92.60;;;;;;4998021;28;20336;-86
2021/04/29 06:54:24;;;;;;;7.10;5.90;;;12.20;92.70;;;;;;5002501;28;20190;-87
2021/04/29 06:56:53;;;;;;;6.30;5.70;;;12.20;92.10;;;;;;4997624;28;20210;-88
2021/04/29 06:59:19;;;;;;;8.93;5.87;;;12.30;93.10;;;;;;4999290;28;20718;-86
2021/04/29 07:01:49;;;;;;;6.00;4.93;;;12.30;92.90;;;;;;4998515;28;20222;-87
2021/04/29 07:04:15;;;;;;;5.93;5.30;;;12.40;91.80;;;;;;4995214;28;20190;-87
2021/04/29 07:06:41;;;;;;;6.70;5.20;;;12.60;89.30;;;;;;4995362;28;20232;-87
2021/04/29 07:09:06;;;;;;;6.43;5.47;;;12.60;92.30;;;;;;5001255;28;20187;-87
2021/04/29 07:11:32;;;;;;;8.70;6.03;;;12.70;90.40;;;;;;4997567;28;20187;-87
2021/04/29 07:14:01;;;;;;;5.97;5.33;;;12.70;91.20;;;;;;4995695;28;20362;-87
2021/04/29 07:16:29;;;;;;;6.67;6.03;;;12.80;89.40;;;;;;4991727;28;20206;-85
2021/04/29 07:19:01;;;;;;;7.03;5.80;;;12.80;90.00;;;;;;4995475;28;20195;-85
2021/04/29 07:21:29;;;;;;;6.97;6.37;;;12.90;88.60;;;;;;4991811;28;20272;-86
2021/04/29 07:23:56;;;;;;;6.67;6.03;;;12.90;90.00;;;;;;4984523;28;20203;-86
2021/04/29 07:26:23;;;;;;;6.73;6.03;;;12.90;89.50;;;;;;4998893;28;20178;-86
2021/04/29 07:28:58;;;;;;;6.73;5.97;;;13.00;89.20;;;;;;4993546;28;20200;-85
2021/04/29 07:31:24;;;;;;;7.10;6.40;;;13.00;89.30;;;;;;4999654;28;20193;-84
2021/04/29 07:33:52;;;;;;;7.07;6.37;;;13.00;89.90;;;;;;4999802;28;20186;-85
2021/04/29 07:36:18;;;;;;;6.57;5.97;;;12.90;89.70;;;;;;4997911;28;20301;-85
2021/04/29 07:38:46;;;;;;;7.23;6.53;;;12.90;89.30;;;;;;5000306;28;20195;-85
2021/04/29 07:41:12;;;;;;;9.40;7.60;;;13.00;89.00;;;;;;4997661;28;20214;-85
2021/04/29 07:43:38;;;;;;;7.63;6.30;;;12.90;88.10;;;;;;4999686;28;20689;-86
2021/04/29 07:46:04;;;;;;;7.43;6.23;;;12.90;87.50;;;;;;5002638;28;20229;-85
2021/04/29 07:48:30;;;;;;;13.57;7.43;;;12.90;88.70;;;;;;5003090;28;20214;-85
2021/04/29 07:51:03;;;;;;;7.97;6.77;;;13.10;89.30;;;;;;5000341;28;20195;-85
2021/04/29 07:53:28;;;;;;;8.30;7.50;;;13.20;89.10;;;;;;4995470;28;20190;-85
2021/04/29 07:55:54;;;;;;;9.03;7.27;;;13.20;89.20;;;;;;4998551;28;20214;-84
2021/04/29 07:58:20;;;;;;;8.13;7.30;;;13.20;89.70;;;;;;4993755;28;20270;-86
2021/04/29 08:00:51;;;;;;;8.57;7.73;;;13.20;89.40;;;;;;4992156;28;20191;-87
2021/04/29 08:03:20;;;;;;;7.33;6.67;;;13.20;88.60;;;;;;4999013;28;20185;-86
2021/04/29 08:05:49;;;;;;;9.30;7.43;;;13.10;88.90;;;;;;4999070;28;20198;-87
2021/04/29 08:08:16;;;;;;;7.23;6.53;;;13.10;88.00;;;;;;4997075;28;20310;-86
2021/04/29 08:10:45;;;;;;;7.73;7.03;;;13.30;87.50;;;;;;4981558;28;20253;-89
2021/04/29 08:13:12;;;;;;;7.57;6.83;;;13.30;89.60;;;;;;4996471;28;20577;-88
2021/04/29 08:16:04;;;;;;;8.40;7.10;;;13.60;87.60;;;;;;4993094;28;20217;-88
2021/04/29 08:18:30;;;;;;;8.33;7.60;;;13.90;86.20;;;;;;5001780;28;20224;-86
2021/04/29 08:20:56;;;;;;;7.60;6.90;;;13.90;86.60;;;;;;4999936;28;20217;-86
2021/04/29 08:23:22;;;;;;;8.40;7.60;;;13.80;84.40;;;;;;4997175;28;20288;-86
2021/04/29 08:25:48;;;;;;;8.77;7.93;;;13.90;84.50;;;;;;4998360;28;20228;-86
2021/04/29 08:28:14;;;;;;;8.10;7.23;;;14.00;83.80;;;;;;4994435;28;20213;-86
2021/04/29 08:30:39;;;;;;;8.30;7.57;;;14.10;83.30;;;;;;4993420;28;20193;-86
2021/04/29 08:33:05;;;;;;;8.33;7.57;;;14.00;83.60;;;;;;4988899;28;20194;-86
2021/04/29 08:35:31;;;;;;;9.67;7.57;;;14.20;83.10;;;;;;4995950;28;20225;-86
2021/04/29 08:38:17;;;;;;;9.93;8.93;;;14.20;83.50;;;;;;5007966;28;20212;-86
2021/04/29 08:40:43;;;;;;;9.10;8.30;;;14.30;82.40;;;;;;4996854;28;20237;-86
2021/04/29 08:43:09;;;;;;;9.20;8.30;;;14.50;80.50;;;;;;4998395;28;20197;-86
2021/04/29 08:45:38;;;;;;;8.87;8.03;;;14.50;80.50;;;;;;4995441;28;20193;-84
2021/04/29 08:48:04;;;;;;;8.80;8.03;;;14.60;79.30;;;;;;4999835;28;20228;-85
2021/04/29 08:50:32;;;;;;;9.57;8.50;;;14.80;77.80;;;;;;4992322;28;20209;-84
2021/04/29 08:52:57;;;;;;;8.67;7.87;;;14.90;78.40;;;;;;4996358;28;20197;-84
2021/04/29 08:55:25;;;;;;;9.47;8.47;;;15.20;78.30;;;;;;5000340;28;20300;-85
2021/04/29 08:57:52;;;;;;;9.27;8.37;;;15.00;77.40;;;;;;4991456;28;20236;-84
2021/04/29 09:00:19;;;;;;;10.07;9.17;;;14.50;79.30;;;;;;4993461;28;20550;-84
2021/04/29 09:02:46;;;;;;;9.47;8.60;;;14.10;77.70;;;;;;4997443;28;20276;-84
2021/04/29 09:05:17;;;;;;;10.00;9.00;;;14.00;80.30;;;;;;4993208;28;20195;-84
2021/04/29 09:08:01;;;;;;;10.03;9.03;;;14.10;79.00;;;;;;4992660;28;20205;-85
2021/04/29 09:10:37;;;;;;;10.57;9.47;;;14.00;79.50;;;;;;4998920;28;20220;-85
2021/04/29 09:13:20;;;;;;;12.20;10.63;;;14.10;80.10;;;;;;5000497;28;20276;-85
2021/04/29 09:15:47;;;;;;;12.70;10.73;;;14.10;82.50;;;;;;4994399;28;20280;-86
2021/04/29 09:18:15;;;;;;;9.77;8.73;;;14.10;77.70;;;;;;4989840;28;20214;-87
2021/04/29 09:20:53;;;;;;;11.07;10.03;;;14.00;78.60;;;;;;5001018;28;20185;-88
2021/04/29 09:23:28;;;;;;;14.23;9.47;;;13.60;83.90;;;;;;4982805;28;20196;-88
2021/04/29 09:26:05;;;;;;;9.77;8.40;;;13.20;83.50;;;;;;4995721;28;20189;-88
2021/04/29 09:28:55;;;;;;;9.33;7.13;;;12.30;82.00;;;;;;4985569;28;20682;-86
2021/04/29 09:31:27;;;;;;;9.50;8.10;;;11.50;82.80;;;;;;4990010;28;20222;-89
2021/04/29 09:33:59;;;;;;;11.90;8.93;;;11.30;84.70;;;;;;5003333;28;20186;-86
2021/04/29 09:39:01;;;;;;;104.13;59.57;;;11.20;88.70;;;;;;5039306;28;20243;-85
2021/04/29 09:41:33;;;;;;;13.73;12.43;;;11.20;90.70;;;;;;5042826;28;20192;-85
2021/04/29 09:44:05;;;;;;;12.53;11.27;;;11.20;89.90;;;;;;5041257;28;20185;-86
2021/04/29 09:46:47;;;;;;;11.90;10.73;;;11.20;89.70;;;;;;5032775;28;20181;-87
2021/04/29 09:49:26;;;;;;;11.17;10.07;;;11.60;89.40;;;;;;5028593;28;20183;-87
2021/04/29 09:51:57;;;;;;;20.90;18.80;;;11.80;86.20;;;;;;5027584;28;20193;-86
2021/04/29 09:54:30;;;;;;;22.40;20.20;;;12.00;88.60;;;;;;5027584;28;20210;-86
2021/04/29 09:57:08;;;;;;;13.50;12.20;;;11.80;89.50;;;;;;5023381;28;20294;-87
2021/04/29 09:59:43;;;;;;;11.73;10.50;;;11.60;88.20;;;;;;5025388;28;20176;-87
2021/04/29 10:02:14;;;;;;;12.97;10.57;;;11.50;89.20;;;;;;5024475;28;20184;-87
2021/04/29 10:04:40;;;;;;;10.43;9.43;;;11.50;90.30;;;;;;5032682;28;20201;-86
2021/04/29 10:07:08;;;;;;;9.57;8.70;;;11.40;91.60;;;;;;5027965;28;20237;-87
2021/04/29 10:09:38;;;;;;;11.00;9.53;;;11.40;92.00;;;;;;5031513;28;20227;-86
2021/04/29 10:12:25;;;;;;;12.40;11.23;;;11.20;90.30;;;;;;5023416;28;20680;-86
2021/04/29 10:14:52;;;;;;;11.77;10.57;;;11.30;93.10;;;;;;5030901;28;20209;-86
2021/04/29 10:17:20;;;;;;;12.53;11.23;;;11.40;92.00;;;;;;5023317;28;20269;-86
2021/04/29 10:19:58;;;;;;;13.67;12.37;;;11.40;93.00;;;;;;5024833;28;20217;-86
2021/04/29 10:22:24;;;;;;;12.33;11.13;;;11.60;92.90;;;;;;5030316;28;20215;-87
2021/04/29 10:24:50;;;;;;;13.03;11.63;;;11.70;92.20;;;;;;5021421;28;20257;-86
2021/04/29 10:27:18;;;;;;;20.07;17.60;;;11.70;92.70;;;;;;5027488;28;20295;-86
2021/04/29 10:29:45;;;;;;;19.37;17.30;;;11.70;94.30;;;;;;5030754;28;20209;-86
2021/04/29 10:32:15;;;;;;;21.07;18.87;;;11.70;92.10;;;;;;5029100;28;20191;-86
2021/04/29 10:34:47;;;;;;;14.23;12.67;;;11.60;92.30;;;;;;5024937;28;20276;-86
2021/04/29 10:37:24;;;;;;;12.73;11.53;;;11.60;93.50;;;;;;5024385;28;20213;-86
2021/04/29 10:40:02;;;;;;;11.90;10.63;;;11.50;91.10;;;;;;5031556;28;20185;-86
2021/04/29 10:42:31;;;;;;;12.43;10.20;;;11.40;89.80;;;;;;5034035;28;20189;-86
2021/04/29 10:45:09;;;;;;;12.70;11.50;;;11.50;89.60;;;;;;5034306;28;20276;-86
2021/04/29 10:47:40;;;;;;;10.07;9.17;;;11.50;90.50;;;;;;5030574;28;20222;-86
2021/04/29 10:50:18;;;;;;;11.27;9.17;;;11.80;92.00;;;;;;5029104;28;20194;-85
2021/04/29 10:52:50;;;;;;;8.20;7.33;;;12.10;86.20;;;;;;5021371;28;20190;-83
2021/04/29 10:55:29;;;;;;;8.87;7.97;;;12.10;85.80;;;;;;5021879;28;20376;-85
2021/04/29 10:57:55;;;;;;;9.10;8.20;;;12.40;86.30;;;;;;5025159;28;20624;-85
2021/04/29 11:00:24;;;;;;;9.63;7.70;;;12.50;88.20;;;;;;5021808;28;20212;-85
2021/04/29 11:03:05;;;;;;;9.53;8.47;;;12.70;86.20;;;;;;5022390;28;20206;-85
2021/04/29 11:05:40;;;;;;;8.53;7.83;;;13.00;87.50;;;;;;5019982;28;20251;-85
2021/04/29 11:08:09;;;;;;;9.57;8.60;;;13.30;83.60;;;;;;5017407;28;20622;-86
2021/04/29 11:10:40;;;;;;;11.53;10.43;;;13.70;84.20;;;;;;5021749;28;20718;-84
2021/04/29 11:13:07;;;;;;;10.10;9.13;;;13.90;86.60;;;;;;5022382;28;20196;-85
2021/04/29 11:15:36;;;;;;;11.93;10.10;;;14.60;81.30;;;;;;5021487;28;20216;-84
2021/04/29 11:18:09;;;;;;;11.77;10.53;;;15.00;80.50;;;;;;5021667;28;20222;-85
2021/04/29 11:20:56;;;;;;;11.67;10.53;;;15.50;81.00;;;;;;5024473;28;20185;-85
2021/04/29 11:23:39;;;;;;;11.57;10.53;;;15.70;73.80;;;;;;5029185;28;20268;-85
2021/04/29 11:26:16;;;;;;;13.07;11.87;;;15.80;75.40;;;;;;5024254;28;20208;-85
2021/04/29 11:28:44;;;;;;;11.53;10.50;;;15.50;75.40;;;;;;5019578;28;20195;-85
2021/04/29 11:31:10;;;;;;;13.20;12.00;;;15.20;75.70;;;;;;5020723;28;20189;-85
2021/04/29 11:33:41;;;;;;;12.87;11.63;;;15.10;76.70;;;;;;5021069;28;20215;-85
2021/04/29 11:36:16;;;;;;;14.50;12.10;;;14.90;75.40;;;;;;5020048;28;20320;-85
2021/04/29 11:38:59;;;;;;;13.40;12.30;;;14.80;76.60;;;;;;5021323;28;20199;-85
2021/04/29 11:41:29;;;;;;;12.17;11.17;;;14.70;75.10;;;;;;5020676;28;20389;-84
2021/04/29 11:44:03;;;;;;;11.10;10.00;;;14.70;75.90;;;;;;5020899;28;20593;-86
2021/04/29 11:46:30;;;;;;;12.63;11.47;;;14.70;76.80;;;;;;5023081;28;20223;-85
2021/04/29 11:48:58;;;;;;;12.20;11.10;;;14.50;76.40;;;;;;5020060;28;20657;-85
2021/04/29 11:51:26;;;;;;;11.87;10.67;;;14.50;77.90;;;;;;5019931;28;20258;-83
2021/04/29 11:53:52;;;;;;;10.37;9.50;;;14.40;76.10;;;;;;5018560;28;20628;-87
2021/04/29 11:56:18;;;;;;;9.50;8.60;;;14.50;75.10;;;;;;5016457;28;20234;-87
2021/04/29 11:58:44;;;;;;;9.03;8.23;;;14.50;76.20;;;;;;5019023;28;20283;-87
2021/04/29 12:01:14;;;;;;;6.47;5.87;;;14.30;75.80;;;;;;5018202;28;20188;-86
2021/04/29 12:03:41;;;;;;;7.17;5.57;;;14.10;67.60;;;;;;5023044;28;20188;-87
2021/04/29 12:06:07;;;;;;;6.13;5.00;;;14.20;71.00;;;;;;5023377;28;20913;-88
2021/04/29 12:08:34;;;;;;;5.80;4.90;;;14.40;66.30;;;;;;5025249;28;20476;-88
2021/04/29 12:11:05;;;;;;;5.53;4.90;;;14.30;67.00;;;;;;5022707;28;20287;-87
2021/04/29 12:13:35;;;;;;;5.70;5.23;;;14.70;68.30;;;;;;5015613;28;20208;-87
2021/04/29 12:16:19;;;;;;;6.00;5.50;;;14.70;66.20;;;;;;5013410;28;20267;-86
2021/04/29 12:18:50;;;;;;;6.70;5.90;;;15.10;66.60;;;;;;5015362;28;20208;-85
2021/04/29 12:21:17;;;;;;;7.10;5.80;;;15.80;63.70;;;;;;5021527;28;20264;-84
2021/04/29 12:23:44;;;;;;;6.80;5.90;;;16.30;60.40;;;;;;5024362;28;20730;-85
2021/04/29 12:26:11;;;;;;;6.83;6.13;;;16.60;59.10;;;;;;5022716;28;20200;-86
2021/04/29 12:28:40;;;;;;;7.70;6.43;;;16.30;59.70;;;;;;5017966;28;20307;-86
2021/04/29 12:31:22;;;;;;;6.50;5.90;;;16.10;59.10;;;;;;5011769;28;20217;-86
2021/04/29 12:34:06;;;;;;;6.67;6.07;;;15.90;59.60;;;;;;5020801;28;20192;-86
2021/04/29 12:36:56;;;;;;;7.37;6.67;;;15.70;61.10;;;;;;5022686;28;20225;-85
2021/04/29 12:39:25;;;;;;;7.17;6.57;;;15.60;60.20;;;;;;5025172;28;20193;-84
2021/04/29 12:41:55;;;;;;;8.10;7.40;;;15.20;65.80;;;;;;5033795;28;20202;-85
2021/04/29 12:44:45;;;;;;;8.60;7.63;;;15.50;67.00;;;;;;5029897;28;20201;-85
2021/04/29 12:47:33;;;;;;;11.70;8.37;;;15.30;66.40;;;;;;5021042;28;20288;-85
2021/04/29 12:50:10;;;;;;;8.43;7.73;;;15.60;65.20;;;;;;5023419;28;20177;-86